Felton, Georgia
Current Conditions -  °F | °C
As of 6:55 AM on Saturday 01 Nov 2014 (Local Time) from KPUJ Reporting Station
Overcast Overcast  
Wind Chill: 29°   Ceiling: 3000
Heat Index: 39°   Visibility: 10mi
Dew Point: 32°   Wind: 22mph
Humidity: 75%   Direction: 320°NW
Pressure: 29.97"   Gusts: 30mph
Location:  33.89°N, 85.22°W
Report Text: KPUJ 011055Z AUTO 32019G26KT 10SM OVC030 04/00 A2997 RMK AO2
Loading
Personal Weather Stations






























Interactive Weather Map
Tropical Storm Tracking
New forecast layout! Learn more

10-Day Weather Forecast

Advertisements
Track Severe Weather on mobile